createdAt,value
2023-01-23T00:01:56.495Z,2.83
2023-01-23T00:04:26.346Z,2.73
2023-01-23T00:06:56.168Z,2.91
2023-01-23T00:09:25.951Z,2.94
2023-01-23T00:11:56.017Z,2.81
2023-01-23T00:14:25.806Z,2.90
2023-01-23T00:16:55.630Z,3.04
2023-01-23T00:19:25.736Z,2.85
2023-01-23T00:21:55.484Z,2.78
2023-01-23T00:24:25.207Z,2.94
2023-01-23T00:26:54.985Z,2.97
2023-01-23T00:29:24.947Z,3.06
2023-01-23T00:31:54.534Z,2.88
2023-01-23T00:34:24.494Z,2.82
2023-01-23T00:36:54.374Z,3.03
2023-01-23T00:39:25.670Z,3.03
2023-01-23T00:41:55.497Z,3.04
2023-01-23T00:44:26.434Z,3.01
2023-01-23T00:46:56.673Z,2.96
2023-01-23T00:49:27.029Z,2.75
2023-01-23T00:51:57.269Z,2.87
2023-01-23T00:54:28.820Z,3.06
2023-01-23T00:56:58.693Z,2.99
2023-01-23T00:59:28.471Z,3.12
2023-01-23T01:01:58.545Z,3.14
2023-01-23T01:04:28.662Z,2.92
2023-01-23T01:06:58.110Z,3.01
2023-01-23T01:09:28.078Z,3.02
2023-01-23T01:11:58.250Z,3.05
2023-01-23T01:14:27.772Z,3.10
2023-01-23T01:16:58.737Z,3.25
2023-01-23T01:19:29.369Z,3.12
2023-01-23T01:21:59.242Z,3.17
2023-01-23T01:24:29.212Z,3.12
2023-01-23T01:26:59.178Z,2.90
2023-01-23T01:29:29.448Z,2.90
2023-01-23T01:31:59.269Z,3.01
2023-01-23T01:34:29.991Z,2.54
2023-01-23T01:36:59.932Z,2.75
2023-01-23T01:39:29.716Z,2.93
2023-01-23T01:41:59.705Z,3.03
2023-01-23T01:44:31.663Z,2.64
2023-01-23T01:47:01.488Z,2.75
2023-01-23T01:49:35.299Z,2.89
2023-01-23T01:52:09.780Z,2.90
2023-01-23T01:54:42.767Z,3.04
2023-01-23T01:57:27.317Z,2.82
2023-01-23T02:00:06.058Z,2.84
2023-01-23T02:02:46.438Z,2.82
2023-01-23T02:05:26.363Z,2.82
2023-01-23T02:08:14.143Z,2.83
2023-01-23T02:10:45.937Z,2.88
2023-01-23T02:13:31.489Z,2.89
2023-01-23T02:16:03.990Z,2.79
2023-01-23T02:18:36.571Z,2.80
2023-01-23T02:21:09.049Z,2.91
2023-01-23T02:23:53.627Z,3.11
2023-01-23T02:26:42.581Z,3.10
2023-01-23T02:29:14.209Z,3.25
2023-01-23T02:31:46.154Z,3.18
2023-01-23T02:34:16.247Z,3.18
2023-01-23T02:36:49.243Z,2.96
2023-01-23T02:39:21.271Z,3.17
2023-01-23T02:41:54.286Z,3.20
2023-01-23T02:44:29.224Z,3.32
2023-01-23T02:47:04.078Z,3.34
2023-01-23T02:49:33.980Z,3.42
2023-01-23T02:52:07.159Z,3.58
2023-01-23T02:54:39.437Z,3.22
2023-01-23T02:57:09.836Z,3.32
2023-01-23T02:59:58.001Z,3.37
2023-01-23T03:02:28.087Z,3.12
2023-01-23T03:04:57.879Z,3.43
2023-01-23T03:07:29.433Z,3.22
2023-01-23T03:09:59.195Z,3.19
2023-01-23T03:12:28.853Z,3.34
2023-01-23T03:14:58.898Z,3.21
2023-01-23T03:17:29.100Z,3.23
2023-01-23T03:19:59.052Z,3.25
2023-01-23T03:22:29.004Z,3.15
2023-01-23T03:24:58.905Z,3.29
2023-01-23T03:27:28.949Z,3.36
2023-01-23T03:30:15.644Z,3.30
2023-01-23T03:32:46.602Z,3.35
2023-01-23T03:35:17.963Z,3.53
2023-01-23T03:37:49.519Z,3.09
2023-01-23T03:40:42.452Z,3.13
2023-01-23T03:43:13.183Z,2.96
2023-01-23T03:45:44.723Z,3.40
2023-01-23T03:48:14.605Z,3.22
2023-01-23T03:50:45.438Z,3.15
2023-01-23T03:53:15.693Z,3.29
2023-01-23T03:55:48.791Z,3.29
2023-01-23T03:58:18.961Z,3.34
2023-01-23T04:00:49.647Z,3.28
2023-01-23T04:03:19.795Z,3.13
2023-01-23T04:05:49.408Z,3.10
2023-01-23T04:08:19.248Z,3.11
2023-01-23T04:10:49.437Z,3.30
2023-01-23T04:13:19.301Z,3.48
2023-01-23T04:15:49.265Z,3.35
2023-01-23T04:18:19.325Z,3.29
2023-01-23T04:20:49.225Z,3.18
2023-01-23T04:23:19.199Z,3.34
2023-01-23T04:25:49.706Z,3.16
2023-01-23T04:28:20.009Z,3.17
2023-01-23T04:30:52.169Z,3.08
2023-01-23T04:33:23.763Z,3.09
2023-01-23T04:35:59.567Z,2.99
2023-01-23T04:38:31.216Z,3.05
2023-01-23T04:41:03.070Z,3.17
2023-01-23T04:43:33.672Z,3.21
2023-01-23T04:46:06.861Z,3.26
2023-01-23T04:48:54.919Z,3.29
2023-01-23T04:51:25.062Z,3.17
2023-01-23T04:53:57.498Z,3.12
2023-01-23T04:56:26.580Z,3.12
2023-01-23T04:58:56.838Z,3.10
2023-01-23T05:01:27.012Z,3.00
2023-01-23T05:03:58.912Z,3.00
2023-01-23T05:06:29.121Z,3.27
2023-01-23T05:08:59.420Z,2.94
2023-01-23T05:11:32.073Z,3.08
2023-01-23T05:14:01.996Z,2.99
2023-01-23T05:16:32.669Z,3.03
2023-01-23T05:19:12.752Z,2.94
2023-01-23T05:21:43.155Z,2.96
2023-01-23T05:24:14.793Z,3.07
2023-01-23T05:26:45.446Z,2.90
2023-01-23T05:29:15.903Z,2.82
2023-01-23T05:31:55.807Z,3.06
2023-01-23T05:34:42.298Z,3.08
2023-01-23T05:37:20.510Z,2.88
2023-01-23T05:39:52.318Z,3.11
2023-01-23T05:42:22.342Z,3.11
2023-01-23T05:45:09.316Z,3.00
2023-01-23T05:47:41.258Z,3.00
2023-01-23T05:50:17.859Z,3.09
2023-01-23T05:52:48.033Z,3.01
2023-01-23T05:55:18.070Z,3.00
2023-01-23T05:57:48.903Z,2.96
2023-01-23T06:00:23.375Z,3.15
2023-01-23T06:03:10.717Z,3.04
2023-01-23T06:05:51.565Z,2.94
2023-01-23T06:08:21.387Z,3.09
2023-01-23T06:10:52.684Z,2.95
2023-01-23T06:13:22.811Z,2.94
2023-01-23T06:15:52.734Z,3.16
2023-01-23T06:18:22.818Z,3.16
2023-01-23T06:20:55.640Z,3.24
2023-01-23T06:23:25.384Z,2.79
2023-01-23T06:25:54.924Z,2.97
2023-01-23T06:28:25.497Z,2.88
2023-01-23T06:30:55.699Z,3.16
2023-01-23T06:33:27.219Z,3.02
2023-01-23T06:36:02.023Z,3.16
2023-01-23T06:38:32.548Z,3.11
2023-01-23T06:41:03.148Z,3.15
2023-01-23T06:43:34.635Z,3.01
2023-01-23T06:46:11.590Z,3.06
2023-01-23T06:48:41.326Z,3.03
2023-01-23T06:51:12.038Z,2.95
2023-01-23T06:53:43.547Z,3.21
2023-01-23T06:56:14.027Z,3.03
2023-01-23T06:58:46.690Z,2.97
2023-01-23T07:01:21.530Z,2.81
2023-01-23T07:04:10.206Z,3.02
2023-01-23T07:06:41.023Z,3.15
2023-01-23T07:09:13.370Z,3.16
2023-01-23T07:11:45.102Z,3.36
2023-01-23T07:14:14.920Z,3.29
2023-01-23T07:16:45.097Z,3.22
2023-01-23T07:19:14.948Z,3.11
2023-01-23T07:21:45.045Z,3.11
2023-01-23T07:24:14.793Z,3.15
2023-01-23T07:26:44.657Z,3.23
2023-01-23T07:29:14.749Z,3.17
2023-01-23T07:31:44.698Z,3.23
2023-01-23T07:34:15.391Z,3.31
2023-01-23T07:36:45.335Z,3.10
2023-01-23T07:39:16.142Z,3.08
2023-01-23T07:41:46.593Z,3.29
2023-01-23T07:44:19.242Z,3.10
2023-01-23T07:46:50.164Z,3.16
2023-01-23T07:49:20.076Z,3.00
2023-01-23T07:54:21.630Z,3.22
2023-01-23T07:56:51.818Z,3.34
2023-01-23T07:59:21.889Z,3.26
2023-01-23T08:01:52.612Z,3.38
2023-01-23T08:04:22.521Z,3.38
2023-01-23T08:06:52.394Z,3.15
2023-01-23T08:09:22.309Z,3.15
2023-01-23T08:11:54.078Z,3.26
2023-01-23T08:14:23.696Z,3.31
2023-01-23T08:16:55.127Z,3.15
2023-01-23T08:19:27.853Z,3.69
2023-01-23T08:21:57.726Z,3.40
2023-01-23T08:24:27.296Z,3.39
2023-01-23T08:26:57.212Z,3.60
2023-01-23T08:29:27.023Z,3.44
2023-01-23T08:31:56.838Z,3.35
2023-01-23T08:34:26.918Z,3.50
2023-01-23T08:36:56.693Z,3.47
2023-01-23T08:39:26.262Z,3.65
2023-01-23T08:41:56.050Z,3.66
2023-01-23T08:44:25.637Z,3.60
2023-01-23T08:46:55.380Z,3.73
2023-01-23T08:49:25.425Z,3.36
2023-01-23T08:51:56.684Z,3.69
2023-01-23T08:54:26.777Z,3.82
2023-01-23T08:56:56.853Z,3.77
2023-01-23T08:59:26.783Z,3.99
2023-01-23T09:01:56.925Z,4.03
2023-01-23T09:04:26.821Z,3.77
2023-01-23T09:06:56.590Z,3.77
2023-01-23T09:09:26.778Z,3.87
2023-01-23T09:11:56.994Z,4.18
2023-01-23T09:14:26.492Z,4.26
2023-01-23T09:16:56.381Z,4.13
2023-01-23T09:19:26.366Z,4.15
2023-01-23T09:21:56.975Z,4.19
2023-01-23T09:24:26.512Z,4.31
2023-01-23T09:26:56.671Z,3.80
2023-01-23T09:29:26.740Z,4.17
2023-01-23T09:31:56.794Z,4.26
2023-01-23T09:34:26.776Z,4.17
2023-01-23T09:36:56.993Z,4.09
2023-01-23T09:39:26.925Z,3.97
2023-01-23T09:41:56.836Z,4.28
2023-01-23T09:44:38.402Z,4.37
2023-01-23T09:47:26.069Z,4.45
2023-01-23T09:50:02.054Z,4.45
2023-01-23T09:52:34.709Z,4.29
2023-01-23T09:58:05.789Z,4.34
2023-01-23T10:00:36.574Z,4.37
2023-01-23T10:03:12.749Z,4.38
2023-01-23T10:06:06.500Z,4.44
2023-01-23T10:08:39.344Z,4.53
2023-01-23T10:11:21.350Z,4.48
2023-01-23T10:14:12.329Z,4.62
2023-01-23T10:17:08.896Z,4.47
2023-01-23T10:19:56.747Z,4.69
2023-01-23T10:22:29.706Z,4.71
2023-01-23T10:25:01.709Z,4.34
2023-01-23T10:27:41.748Z,4.55
2023-01-23T10:30:26.838Z,4.59
2023-01-23T10:33:02.695Z,4.44
2023-01-23T10:35:39.121Z,4.66
2023-01-23T10:38:32.142Z,4.59
2023-01-23T10:41:14.538Z,4.54
2023-01-23T10:43:47.768Z,4.48
2023-01-23T10:46:20.271Z,4.41
2023-01-23T10:48:55.349Z,4.56
2023-01-23T10:51:28.060Z,4.67
2023-01-23T10:54:30.353Z,4.95
2023-01-23T10:56:57.890Z,4.80
2023-01-23T10:59:30.934Z,4.50
2023-01-23T11:02:07.494Z,4.50
2023-01-23T11:04:37.045Z,4.52
2023-01-23T11:07:09.699Z,4.47
2023-01-23T11:09:51.454Z,4.73
2023-01-23T11:12:29.957Z,4.58
2023-01-23T11:15:31.418Z,4.99
2023-01-23T11:18:02.604Z,5.00
2023-01-23T11:20:37.747Z,5.07
2023-01-23T11:23:13.511Z,5.07
2023-01-23T11:25:46.388Z,5.15
2023-01-23T11:28:37.107Z,5.32
2023-01-23T11:31:21.989Z,5.31
2023-01-23T11:34:06.743Z,5.51
2023-01-23T11:36:56.000Z,5.36
2023-01-23T11:39:51.027Z,5.35
2023-01-23T11:42:21.563Z,5.31
2023-01-23T11:44:51.570Z,5.01
2023-01-23T11:47:39.695Z,5.05
2023-01-23T11:50:49.885Z,5.30
2023-01-23T11:53:36.789Z,5.59
2023-01-23T11:56:11.186Z,5.20
2023-01-23T11:58:50.388Z,5.36
2023-01-23T12:02:02.538Z,5.27
2023-01-23T12:04:49.072Z,5.39
2023-01-23T12:07:22.825Z,5.21
2023-01-23T12:10:13.191Z,5.19
2023-01-23T12:13:10.055Z,5.22
2023-01-23T12:16:03.372Z,5.09
2023-01-23T12:18:44.995Z,4.95
2023-01-23T12:21:20.766Z,4.95
2023-01-23T12:24:02.376Z,5.03
2023-01-23T12:26:34.828Z,5.08
2023-01-23T12:29:22.546Z,5.06
2023-01-23T12:32:10.461Z,4.77
2023-01-23T12:34:55.217Z,5.11
2023-01-23T12:40:36.650Z,5.28
2023-01-23T12:43:26.375Z,5.12
2023-01-23T12:46:02.404Z,5.06
2023-01-23T12:48:35.189Z,5.43
2023-01-23T12:51:10.653Z,5.44
2023-01-23T12:53:42.661Z,5.43
2023-01-23T12:56:18.297Z,5.35
2023-01-23T12:59:10.634Z,5.36
2023-01-23T13:01:49.329Z,5.48
2023-01-23T13:04:39.892Z,5.61
2023-01-23T13:07:12.774Z,5.61
2023-01-23T13:09:54.212Z,5.73
2023-01-23T13:12:27.114Z,5.50
2023-01-23T13:15:38.716Z,5.63
2023-01-23T13:18:03.039Z,5.85
2023-01-23T13:20:53.492Z,5.72
2023-01-23T13:23:26.268Z,5.57
2023-01-23T13:26:15.614Z,5.54
2023-01-23T13:28:57.618Z,5.83
2023-01-23T13:31:40.512Z,5.83
2023-01-23T13:34:21.603Z,5.64
2023-01-23T13:36:53.174Z,5.84
2023-01-23T13:39:28.806Z,5.82
2023-01-23T13:42:19.315Z,5.55
2023-01-23T13:45:08.081Z,5.52
2023-01-23T13:47:57.043Z,5.59
2023-01-23T13:50:32.487Z,5.78
2023-01-23T13:53:34.659Z,5.43
2023-01-23T13:56:25.735Z,5.78
2023-01-23T13:58:56.281Z,5.73
2023-01-23T14:01:45.839Z,5.35
2023-01-23T14:04:45.008Z,5.12
2023-01-23T14:07:46.166Z,5.12
2023-01-23T14:10:31.977Z,5.26
2023-01-23T14:13:13.596Z,5.11
2023-01-23T14:16:06.655Z,5.11
2023-01-23T14:18:39.893Z,5.17
2023-01-23T14:21:23.729Z,5.18
2023-01-23T14:23:56.605Z,4.88
2023-01-23T14:26:28.984Z,4.75
2023-01-23T14:29:05.269Z,4.86
2023-01-23T14:31:38.163Z,5.09
2023-01-23T14:34:19.041Z,5.04
2023-01-23T14:37:09.253Z,5.40
2023-01-23T14:39:40.999Z,5.69
2023-01-23T14:42:26.385Z,5.77
2023-01-23T14:44:58.983Z,6.63
2023-01-23T14:47:35.267Z,7.08
2023-01-23T14:50:12.375Z,7.15
2023-01-23T14:52:42.315Z,7.19
2023-01-23T14:55:29.775Z,7.00
2023-01-23T14:58:00.853Z,6.44
2023-01-23T15:00:31.370Z,6.44
2023-01-23T15:03:01.400Z,6.07
2023-01-23T15:05:32.922Z,5.92
2023-01-23T15:08:08.368Z,5.73
2023-01-23T15:10:43.780Z,5.83
2023-01-23T15:13:29.202Z,5.79
2023-01-23T15:16:02.051Z,5.72
2023-01-23T15:18:36.623Z,5.51
2023-01-23T15:21:08.584Z,5.55
2023-01-23T15:23:41.306Z,5.65
2023-01-23T15:26:17.536Z,5.57
2023-01-23T15:28:53.938Z,5.76
2023-01-23T15:31:32.624Z,5.44
2023-01-23T15:34:17.370Z,5.31
2023-01-23T15:37:01.320Z,5.26
2023-01-23T15:39:42.520Z,5.36
2023-01-23T15:42:18.335Z,5.37
2023-01-23T15:44:48.287Z,5.37
2023-01-23T15:47:18.143Z,5.50
2023-01-23T15:49:47.910Z,5.41
2023-01-23T15:52:21.355Z,5.20
2023-01-23T15:54:54.396Z,5.48
2023-01-23T15:57:24.474Z,5.16
2023-01-23T15:59:54.237Z,5.17
2023-01-23T16:02:31.035Z,5.27
2023-01-23T16:04:56.744Z,5.23
2023-01-23T16:07:36.051Z,4.99
2023-01-23T16:10:10.006Z,5.14
2023-01-23T16:12:40.242Z,4.99
2023-01-23T16:15:18.288Z,5.09
2023-01-23T16:17:48.929Z,5.15
2023-01-23T16:20:23.518Z,5.15
2023-01-23T16:22:56.387Z,4.89
2023-01-23T16:25:43.689Z,4.78
2023-01-23T16:28:09.717Z,4.78
2023-01-23T16:30:39.918Z,4.93
2023-01-23T16:33:09.856Z,4.94
2023-01-23T16:35:40.468Z,4.78
2023-01-23T16:38:23.200Z,4.92
2023-01-23T16:40:54.233Z,4.83
2023-01-23T16:43:24.566Z,4.79
2023-01-23T16:45:56.475Z,5.02
2023-01-23T16:48:28.365Z,4.86
2023-01-23T16:51:10.420Z,4.73
2023-01-23T16:53:43.569Z,4.74
2023-01-23T16:56:22.206Z,4.79
2023-01-23T16:58:52.353Z,4.96
2023-01-23T17:01:24.364Z,4.75
2023-01-23T17:03:59.997Z,4.79
2023-01-23T17:06:29.741Z,4.62
2023-01-23T17:09:00.133Z,4.55
2023-01-23T17:11:34.107Z,5.01
2023-01-23T17:14:08.166Z,4.96
2023-01-23T17:16:38.109Z,4.86
2023-01-23T17:19:19.801Z,4.86
2023-01-23T17:21:50.375Z,4.97
2023-01-23T17:24:20.093Z,4.89
2023-01-23T17:26:50.028Z,4.70
2023-01-23T17:29:20.156Z,4.42
2023-01-23T17:31:50.677Z,4.79
2023-01-23T17:34:26.442Z,4.73
2023-01-23T17:36:58.020Z,4.72
2023-01-23T17:39:28.210Z,4.73
2023-01-23T17:41:58.012Z,4.73
2023-01-23T17:44:27.809Z,4.85
2023-01-23T17:46:57.460Z,4.80
2023-01-23T17:49:31.898Z,4.78
2023-01-23T17:52:02.760Z,4.82
2023-01-23T17:54:33.176Z,5.07
2023-01-23T17:57:03.102Z,5.06
2023-01-23T17:59:33.041Z,4.56
2023-01-23T18:02:03.340Z,4.69
2023-01-23T18:04:33.575Z,4.85
2023-01-23T18:07:03.121Z,4.70
2023-01-23T18:09:34.304Z,4.91
2023-01-23T18:12:06.316Z,4.67
2023-01-23T18:14:50.873Z,4.56
2023-01-23T18:17:32.196Z,4.89
2023-01-23T18:20:02.405Z,4.53
2023-01-23T18:25:22.503Z,4.90
2023-01-23T18:27:55.452Z,5.04
2023-01-23T18:30:39.302Z,5.04
2023-01-23T18:33:24.173Z,4.86
2023-01-23T18:36:23.834Z,4.63
2023-01-23T18:39:32.119Z,4.67
2023-01-23T18:42:16.634Z,4.72
2023-01-23T18:45:01.126Z,4.86
2023-01-23T18:47:31.228Z,4.62
2023-01-23T18:50:01.210Z,4.62
2023-01-23T18:52:34.039Z,4.61
2023-01-23T18:55:18.667Z,4.64
2023-01-23T18:57:51.812Z,4.68
2023-01-23T19:00:33.496Z,4.73
2023-01-23T19:03:15.257Z,4.69
2023-01-23T19:05:46.783Z,4.56
2023-01-23T19:08:26.663Z,4.68
2023-01-23T19:10:59.456Z,4.54
2023-01-23T19:13:40.570Z,4.69
2023-01-23T19:16:20.485Z,4.85
2023-01-23T19:19:10.713Z,4.84
2023-01-23T19:21:31.408Z,4.83
2023-01-23T19:24:08.159Z,4.55
2023-01-23T19:26:40.952Z,4.73
2023-01-23T19:29:21.651Z,4.49
2023-01-23T19:31:49.710Z,4.48
2023-01-23T19:34:16.789Z,4.47
2023-01-23T19:36:46.580Z,4.50
2023-01-23T19:39:16.735Z,4.50
2023-01-23T19:41:48.721Z,4.52
2023-01-23T19:44:20.524Z,4.52
2023-01-23T19:46:50.501Z,4.54
2023-01-23T19:49:20.313Z,4.66
2023-01-23T19:51:50.136Z,4.74
2023-01-23T19:54:22.230Z,4.62
2023-01-23T19:56:51.858Z,4.70
2023-01-23T19:59:21.748Z,4.46
2023-01-23T20:01:53.199Z,4.82
2023-01-23T20:04:24.712Z,4.71
2023-01-23T20:06:54.576Z,4.61
2023-01-23T20:09:24.327Z,4.47
2023-01-23T20:11:54.176Z,4.47
2023-01-23T20:14:25.007Z,4.40
2023-01-23T20:16:54.915Z,4.44
2023-01-23T20:19:25.121Z,4.40
2023-01-23T20:24:43.754Z,4.31
2023-01-23T20:27:13.635Z,4.37
2023-01-23T20:29:43.745Z,4.52
2023-01-23T20:32:13.471Z,4.86
2023-01-23T20:34:43.374Z,4.67
2023-01-23T20:37:13.197Z,4.66
2023-01-23T20:39:42.958Z,4.73
2023-01-23T20:42:12.497Z,4.73
2023-01-23T20:44:42.945Z,4.35
2023-01-23T20:47:13.068Z,4.37
2023-01-23T20:49:42.960Z,4.48
2023-01-23T20:52:29.963Z,4.48
2023-01-23T20:54:59.792Z,4.49
2023-01-23T20:57:31.230Z,4.62
2023-01-23T21:00:01.311Z,4.38
2023-01-23T21:02:32.761Z,4.68
2023-01-23T21:05:02.847Z,4.57
2023-01-23T21:07:32.963Z,4.85
2023-01-23T21:10:02.672Z,4.79
2023-01-23T21:12:32.665Z,4.75
2023-01-23T21:15:02.440Z,4.59
2023-01-23T21:17:32.183Z,4.50
2023-01-23T21:20:02.027Z,4.61
2023-01-23T21:22:32.135Z,4.60
2023-01-23T21:25:01.969Z,4.55
2023-01-23T21:27:31.899Z,4.50
2023-01-23T21:30:01.830Z,4.55
2023-01-23T21:32:31.727Z,4.60
2023-01-23T21:35:01.553Z,4.55
2023-01-23T21:37:31.418Z,4.61
2023-01-23T21:40:01.235Z,4.61
2023-01-23T21:42:31.070Z,4.73
2023-01-23T21:45:00.822Z,4.42
2023-01-23T21:47:30.718Z,4.57
2023-01-23T21:50:00.583Z,4.51
2023-01-23T21:52:30.353Z,4.44
2023-01-23T21:55:00.158Z,4.30
2023-01-23T21:57:30.010Z,4.41
2023-01-23T22:00:17.715Z,4.49
2023-01-23T22:02:47.839Z,4.34
2023-01-23T22:05:17.646Z,4.33
2023-01-23T22:07:50.732Z,4.38
2023-01-23T22:10:20.613Z,4.43
2023-01-23T22:12:50.170Z,4.44
2023-01-23T22:15:20.420Z,4.71
2023-01-23T22:17:50.785Z,4.65
2023-01-23T22:20:20.435Z,4.65
2023-01-23T22:22:50.513Z,4.37
2023-01-23T22:25:20.516Z,4.52
2023-01-23T22:27:50.427Z,4.52
2023-01-23T22:30:20.588Z,4.81
2023-01-23T22:32:50.394Z,4.68
2023-01-23T22:35:20.629Z,4.57
2023-01-23T22:37:50.524Z,4.18
2023-01-23T22:40:20.286Z,4.36
2023-01-23T22:42:50.053Z,4.33
2023-01-23T22:45:20.378Z,4.38
2023-01-23T22:47:50.337Z,4.62
2023-01-23T22:50:20.323Z,4.62
2023-01-23T22:52:50.215Z,4.04
2023-01-23T22:55:20.487Z,4.15
2023-01-23T22:57:55.179Z,4.20
2023-01-23T23:00:25.009Z,4.28
2023-01-23T23:02:54.982Z,4.28
2023-01-23T23:05:24.714Z,4.09
2023-01-23T23:07:54.493Z,4.17
2023-01-23T23:10:24.332Z,4.05
2023-01-23T23:12:54.181Z,4.24
2023-01-23T23:15:23.698Z,4.16
2023-01-23T23:17:53.668Z,4.35
2023-01-23T23:20:23.512Z,4.02
2023-01-23T23:22:53.369Z,4.04
2023-01-23T23:25:23.292Z,4.03
2023-01-23T23:27:53.407Z,4.03
2023-01-23T23:30:23.250Z,4.24
2023-01-23T23:32:53.165Z,4.17
2023-01-23T23:35:23.522Z,4.30
2023-01-23T23:37:53.309Z,4.29
2023-01-23T23:40:23.082Z,4.54
2023-01-23T23:42:53.154Z,4.37
2023-01-23T23:45:23.422Z,4.19
2023-01-23T23:47:55.005Z,4.12
2023-01-23T23:50:24.742Z,4.12
2023-01-23T23:52:55.069Z,4.21
2023-01-23T23:55:24.836Z,4.39
2023-01-23T23:57:54.747Z,4.11
